Stanleyville, North Carolina
Current Conditions -  °F | °C
As of 9:54 AM on Wednesday 26 Nov 2014 (Local Time) from KINT Reporting Station
Light Rain Light Rain  
Wind Chill: 37°   Ceiling: 800
Heat Index: 42°   Visibility: 6mi
Dew Point: 39°   Wind: 8mph
Humidity: 89%   Direction: 30°NNE
Pressure: 29.99"   Gusts: NA
Location:  36.2334°N, 80.2983°W
Report Text: KINT 261454Z 03007KT 6SM -RA BR OVC008 06/04 A2999 RMK AO2 SLP154 P0005 60017 T00560039 50008
Loading
Personal Weather Stations






























Interactive Weather Map New forecast layout! Learn more

10-Day Weather Forecast

Advertisements
Track Severe Weather on mobile